sensor_id;sensor_type;location;lat;lon;timestamp;P1;durP1;ratioP1;P2;durP2;ratioP2
37937;SDS011;23763;48.130;11.602;2023-10-19T00:00:32;20.77;;;18.75;;
37937;SDS011;23763;48.130;11.602;2023-10-19T00:03:02;21.17;;;19.08;;
37937;SDS011;23763;48.130;11.602;2023-10-19T00:05:28;20.33;;;18.42;;
37937;SDS011;23763;48.130;11.602;2023-10-19T00:07:56;20.48;;;18.30;;
37937;SDS011;23763;48.130;11.602;2023-10-19T00:10:25;19.35;;;17.55;;
37937;SDS011;23763;48.130;11.602;2023-10-19T00:12:56;20.15;;;18.25;;
37937;SDS011;23763;48.130;11.602;2023-10-19T00:15:25;20.13;;;18.23;;
37937;SDS011;23763;48.130;11.602;2023-10-19T00:17:55;20.48;;;18.58;;
37937;SDS011;23763;48.130;11.602;2023-10-19T00:20:21;19.70;;;17.73;;
37937;SDS011;23763;48.130;11.602;2023-10-19T00:23:16;20.02;;;18.20;;
37937;SDS011;23763;48.130;11.602;2023-10-19T00:25:53;20.13;;;18.17;;
37937;SDS011;23763;48.130;11.602;2023-10-19T00:28:19;20.83;;;18.83;;
37937;SDS011;23763;48.130;11.602;2023-10-19T00:30:47;20.55;;;18.65;;
37937;SDS011;23763;48.130;11.602;2023-10-19T00:33:16;20.55;;;18.55;;
37937;SDS011;23763;48.130;11.602;2023-10-19T00:35:43;20.10;;;18.23;;
37937;SDS011;23763;48.130;11.602;2023-10-19T00:38:32;21.38;;;19.20;;
37937;SDS011;23763;48.130;11.602;2023-10-19T00:41:00;20.00;;;18.10;;
37937;SDS011;23763;48.130;11.602;2023-10-19T00:43:36;20.92;;;18.75;;
37937;SDS011;23763;48.130;11.602;2023-10-19T00:46:15;21.33;;;19.17;;
37937;SDS011;23763;48.130;11.602;2023-10-19T00:48:46;20.63;;;18.63;;
37937;SDS011;23763;48.130;11.602;2023-10-19T00:51:14;19.90;;;18.00;;
37937;SDS011;23763;48.130;11.602;2023-10-19T00:53:56;20.60;;;18.55;;
37937;SDS011;23763;48.130;11.602;2023-10-19T00:56:36;20.42;;;18.40;;
37937;SDS011;23763;48.130;11.602;2023-10-19T00:59:02;21.35;;;19.35;;
37937;SDS011;23763;48.130;11.602;2023-10-19T01:01:39;20.17;;;18.30;;
37937;SDS011;23763;48.130;11.602;2023-10-19T01:04:10;20.48;;;18.58;;
37937;SDS011;23763;48.130;11.602;2023-10-19T01:06:41;21.30;;;19.30;;
37937;SDS011;23763;48.130;11.602;2023-10-19T01:09:23;21.77;;;19.45;;
37937;SDS011;23763;48.130;11.602;2023-10-19T01:11:52;19.27;;;17.48;;
37937;SDS011;23763;48.130;11.602;2023-10-19T01:14:20;20.17;;;18.30;;
37937;SDS011;23763;48.130;11.602;2023-10-19T01:16:47;19.88;;;17.98;;
37937;SDS011;23763;48.130;11.602;2023-10-19T01:19:14;19.90;;;18.08;;
37937;SDS011;23763;48.130;11.602;2023-10-19T01:21:43;19.88;;;17.88;;
37937;SDS011;23763;48.130;11.602;2023-10-19T01:24:15;19.98;;;18.08;;
37937;SDS011;23763;48.130;11.602;2023-10-19T01:26:42;20.35;;;18.55;;
37937;SDS011;23763;48.130;11.602;2023-10-19T01:29:08;20.55;;;18.45;;
37937;SDS011;23763;48.130;11.602;2023-10-19T01:31:41;21.00;;;19.00;;
37937;SDS011;23763;48.130;11.602;2023-10-19T01:34:20;20.52;;;18.45;;
37937;SDS011;23763;48.130;11.602;2023-10-19T01:36:47;18.75;;;17.15;;
37937;SDS011;23763;48.130;11.602;2023-10-19T01:39:15;19.52;;;17.80;;
37937;SDS011;23763;48.130;11.602;2023-10-19T01:41:43;19.02;;;17.23;;
37937;SDS011;23763;48.130;11.602;2023-10-19T01:44:09;18.30;;;16.67;;
37937;SDS011;23763;48.130;11.602;2023-10-19T01:46:39;18.48;;;16.83;;
37937;SDS011;23763;48.130;11.602;2023-10-19T01:49:05;19.02;;;17.23;;
37937;SDS011;23763;48.130;11.602;2023-10-19T01:51:33;18.27;;;16.67;;
37937;SDS011;23763;48.130;11.602;2023-10-19T01:54:03;18.85;;;17.15;;
37937;SDS011;23763;48.130;11.602;2023-10-19T01:56:30;19.15;;;17.48;;
37937;SDS011;23763;48.130;11.602;2023-10-19T01:58:55;19.40;;;17.50;;
37937;SDS011;23763;48.130;11.602;2023-10-19T02:01:22;17.92;;;16.33;;
37937;SDS011;23763;48.130;11.602;2023-10-19T02:03:51;19.30;;;17.55;;
37937;SDS011;23763;48.130;11.602;2023-10-19T02:06:20;18.92;;;17.17;;
37937;SDS011;23763;48.130;11.602;2023-10-19T02:09:03;18.10;;;16.30;;
37937;SDS011;23763;48.130;11.602;2023-10-19T02:11:56;18.58;;;17.08;;
37937;SDS011;23763;48.130;11.602;2023-10-19T02:14:22;18.45;;;16.92;;
37937;SDS011;23763;48.130;11.602;2023-10-19T02:16:53;18.90;;;17.20;;
37937;SDS011;23763;48.130;11.602;2023-10-19T02:19:24;17.58;;;15.82;;
37937;SDS011;23763;48.130;11.602;2023-10-19T02:21:58;18.13;;;16.63;;
37937;SDS011;23763;48.130;11.602;2023-10-19T02:24:33;18.70;;;17.00;;
37937;SDS011;23763;48.130;11.602;2023-10-19T02:26:58;18.30;;;16.73;;
37937;SDS011;23763;48.130;11.602;2023-10-19T02:29:26;17.90;;;16.40;;
37937;SDS011;23763;48.130;11.602;2023-10-19T02:31:51;18.75;;;16.92;;
37937;SDS011;23763;48.130;11.602;2023-10-19T02:34:18;18.60;;;16.98;;
37937;SDS011;23763;48.130;11.602;2023-10-19T02:36:45;18.50;;;16.80;;
37937;SDS011;23763;48.130;11.602;2023-10-19T02:39:13;18.48;;;16.77;;
37937;SDS011;23763;48.130;11.602;2023-10-19T02:41:40;18.35;;;16.83;;
37937;SDS011;23763;48.130;11.602;2023-10-19T02:44:08;18.65;;;16.75;;
37937;SDS011;23763;48.130;11.602;2023-10-19T02:46:35;18.83;;;17.13;;
37937;SDS011;23763;48.130;11.602;2023-10-19T02:49:04;18.40;;;16.65;;
37937;SDS011;23763;48.130;11.602;2023-10-19T02:51:40;17.40;;;15.82;;
37937;SDS011;23763;48.130;11.602;2023-10-19T02:54:09;18.98;;;17.27;;
37937;SDS011;23763;48.130;11.602;2023-10-19T02:56:44;19.20;;;17.50;;
37937;SDS011;23763;48.130;11.602;2023-10-19T02:59:14;17.13;;;15.65;;
37937;SDS011;23763;48.130;11.602;2023-10-19T03:01:41;18.95;;;17.23;;
37937;SDS011;23763;48.130;11.602;2023-10-19T03:04:09;19.27;;;17.52;;
37937;SDS011;23763;48.130;11.602;2023-10-19T03:06:37;18.65;;;16.92;;
37937;SDS011;23763;48.130;11.602;2023-10-19T03:09:05;19.83;;;17.92;;
37937;SDS011;23763;48.130;11.602;2023-10-19T03:11:39;19.17;;;17.33;;
37937;SDS011;23763;48.130;11.602;2023-10-19T03:14:06;18.52;;;16.83;;
37937;SDS011;23763;48.130;11.602;2023-10-19T03:16:33;17.77;;;16.08;;
37937;SDS011;23763;48.130;11.602;2023-10-19T03:19:00;17.63;;;16.05;;
37937;SDS011;23763;48.130;11.602;2023-10-19T03:21:25;18.27;;;16.58;;
37937;SDS011;23763;48.130;11.602;2023-10-19T03:23:57;18.05;;;16.38;;
37937;SDS011;23763;48.130;11.602;2023-10-19T03:26:26;18.27;;;16.65;;
37937;SDS011;23763;48.130;11.602;2023-10-19T03:28:55;18.02;;;16.33;;
37937;SDS011;23763;48.130;11.602;2023-10-19T03:31:25;17.65;;;16.15;;
37937;SDS011;23763;48.130;11.602;2023-10-19T03:33:51;18.27;;;16.65;;
37937;SDS011;23763;48.130;11.602;2023-10-19T03:36:23;18.58;;;16.60;;
37937;SDS011;23763;48.130;11.602;2023-10-19T03:38:50;18.23;;;16.73;;
37937;SDS011;23763;48.130;11.602;2023-10-19T03:41:18;18.05;;;16.45;;
37937;SDS011;23763;48.130;11.602;2023-10-19T03:43:49;17.05;;;15.55;;
37937;SDS011;23763;48.130;11.602;2023-10-19T03:46:16;16.95;;;15.45;;
37937;SDS011;23763;48.130;11.602;2023-10-19T03:48:58;17.52;;;15.85;;
37937;SDS011;23763;48.130;11.602;2023-10-19T03:51:28;16.35;;;14.88;;
37937;SDS011;23763;48.130;11.602;2023-10-19T03:54:04;18.10;;;16.40;;
37937;SDS011;23763;48.130;11.602;2023-10-19T03:56:45;16.95;;;15.45;;
37937;SDS011;23763;48.130;11.602;2023-10-19T03:59:13;16.33;;;14.88;;
37937;SDS011;23763;48.130;11.602;2023-10-19T04:01:41;17.25;;;15.77;;
37937;SDS011;23763;48.130;11.602;2023-10-19T04:04:08;17.20;;;15.40;;
37937;SDS011;23763;48.130;11.602;2023-10-19T04:06:34;16.70;;;15.40;;
37937;SDS011;23763;48.130;11.602;2023-10-19T04:09:00;17.15;;;15.65;;
37937;SDS011;23763;48.130;11.602;2023-10-19T04:11:26;17.25;;;15.75;;
37937;SDS011;23763;48.130;11.602;2023-10-19T04:13:58;16.20;;;14.75;;
37937;SDS011;23763;48.130;11.602;2023-10-19T04:16:28;15.60;;;14.30;;
37937;SDS011;23763;48.130;11.602;2023-10-19T04:18:55;15.73;;;14.43;;
37937;SDS011;23763;48.130;11.602;2023-10-19T04:21:20;15.30;;;14.00;;
37937;SDS011;23763;48.130;11.602;2023-10-19T04:23:46;15.73;;;14.32;;
37937;SDS011;23763;48.130;11.602;2023-10-19T04:26:11;17.08;;;15.50;;
37937;SDS011;23763;48.130;11.602;2023-10-19T04:28:39;17.80;;;16.20;;
37937;SDS011;23763;48.130;11.602;2023-10-19T04:31:15;16.40;;;14.98;;
37937;SDS011;23763;48.130;11.602;2023-10-19T04:33:43;17.17;;;15.65;;
37937;SDS011;23763;48.130;11.602;2023-10-19T04:36:13;16.55;;;15.15;;
37937;SDS011;23763;48.130;11.602;2023-10-19T04:38:40;15.27;;;14.18;;
37937;SDS011;23763;48.130;11.602;2023-10-19T04:41:09;15.70;;;14.30;;
37937;SDS011;23763;48.130;11.602;2023-10-19T04:43:36;16.52;;;15.10;;
37937;SDS011;23763;48.130;11.602;2023-10-19T04:46:08;15.82;;;14.63;;
37937;SDS011;23763;48.130;11.602;2023-10-19T04:48:36;14.32;;;13.13;;
37937;SDS011;23763;48.130;11.602;2023-10-19T04:51:04;15.35;;;14.07;;
37937;SDS011;23763;48.130;11.602;2023-10-19T04:53:36;14.10;;;12.90;;
37937;SDS011;23763;48.130;11.602;2023-10-19T04:56:02;13.82;;;12.68;;
37937;SDS011;23763;48.130;11.602;2023-10-19T04:58:29;15.20;;;13.90;;
37937;SDS011;23763;48.130;11.602;2023-10-19T05:00:55;15.60;;;14.10;;
37937;SDS011;23763;48.130;11.602;2023-10-19T05:03:24;14.48;;;13.38;;
37937;SDS011;23763;48.130;11.602;2023-10-19T05:05:53;15.20;;;13.85;;
37937;SDS011;23763;48.130;11.602;2023-10-19T05:08:19;15.25;;;13.75;;
37937;SDS011;23763;48.130;11.602;2023-10-19T05:10:45;13.98;;;12.88;;
37937;SDS011;23763;48.130;11.602;2023-10-19T05:13:11;14.38;;;13.10;;
37937;SDS011;23763;48.130;11.602;2023-10-19T05:15:37;14.25;;;13.02;;
37937;SDS011;23763;48.130;11.602;2023-10-19T05:18:03;14.35;;;13.07;;
37937;SDS011;23763;48.130;11.602;2023-10-19T05:20:29;14.18;;;13.07;;
37937;SDS011;23763;48.130;11.602;2023-10-19T05:22:55;15.13;;;13.57;;
37937;SDS011;23763;48.130;11.602;2023-10-19T05:25:23;14.63;;;13.48;;
37937;SDS011;23763;48.130;11.602;2023-10-19T05:27:48;14.38;;;13.20;;
37937;SDS011;23763;48.130;11.602;2023-10-19T05:30:14;14.90;;;13.60;;
37937;SDS011;23763;48.130;11.602;2023-10-19T05:32:40;15.98;;;13.68;;
37937;SDS011;23763;48.130;11.602;2023-10-19T05:35:05;14.45;;;13.10;;
37937;SDS011;23763;48.130;11.602;2023-10-19T05:37:31;14.70;;;13.40;;
37937;SDS011;23763;48.130;11.602;2023-10-19T05:39:57;14.20;;;13.15;;
37937;SDS011;23763;48.130;11.602;2023-10-19T05:42:23;14.65;;;13.35;;
37937;SDS011;23763;48.130;11.602;2023-10-19T05:44:49;14.55;;;13.32;;
37937;SDS011;23763;48.130;11.602;2023-10-19T05:47:16;15.05;;;13.90;;
37937;SDS011;23763;48.130;11.602;2023-10-19T05:49:42;15.85;;;14.18;;
37937;SDS011;23763;48.130;11.602;2023-10-19T05:52:08;15.02;;;13.73;;
37937;SDS011;23763;48.130;11.602;2023-10-19T05:54:34;14.27;;;12.82;;
37937;SDS011;23763;48.130;11.602;2023-10-19T05:57:01;13.65;;;12.55;;
37937;SDS011;23763;48.130;11.602;2023-10-19T05:59:26;13.02;;;12.00;;
37937;SDS011;23763;48.130;11.602;2023-10-19T06:01:54;13.65;;;12.48;;
37937;SDS011;23763;48.130;11.602;2023-10-19T06:04:19;12.88;;;11.95;;
37937;SDS011;23763;48.130;11.602;2023-10-19T06:06:45;13.52;;;12.25;;
37937;SDS011;23763;48.130;11.602;2023-10-19T06:09:11;13.23;;;12.13;;
37937;SDS011;23763;48.130;11.602;2023-10-19T06:11:36;13.75;;;12.43;;
37937;SDS011;23763;48.130;11.602;2023-10-19T06:14:07;14.05;;;12.75;;
37937;SDS011;23763;48.130;11.602;2023-10-19T06:16:34;13.65;;;12.43;;
37937;SDS011;23763;48.130;11.602;2023-10-19T06:19:00;17.80;;;12.23;;
37937;SDS011;23763;48.130;11.602;2023-10-19T06:21:26;13.65;;;12.45;;
37937;SDS011;23763;48.130;11.602;2023-10-19T06:23:51;13.18;;;11.88;;
37937;SDS011;23763;48.130;11.602;2023-10-19T06:26:18;13.00;;;11.90;;
37937;SDS011;23763;48.130;11.602;2023-10-19T06:28:44;12.88;;;11.77;;
37937;SDS011;23763;48.130;11.602;2023-10-19T06:31:10;14.73;;;11.55;;
37937;SDS011;23763;48.130;11.602;2023-10-19T06:33:35;14.25;;;12.43;;
37937;SDS011;23763;48.130;11.602;2023-10-19T06:36:06;14.00;;;12.55;;
37937;SDS011;23763;48.130;11.602;2023-10-19T06:38:32;12.23;;;11.27;;
37937;SDS011;23763;48.130;11.602;2023-10-19T06:40:57;13.20;;;11.98;;
37937;SDS011;23763;48.130;11.602;2023-10-19T06:43:24;12.85;;;11.82;;
37937;SDS011;23763;48.130;11.602;2023-10-19T06:45:53;12.75;;;11.55;;
37937;SDS011;23763;48.130;11.602;2023-10-19T06:48:20;12.43;;;11.27;;
37937;SDS011;23763;48.130;11.602;2023-10-19T06:50:46;11.80;;;10.70;;
37937;SDS011;23763;48.130;11.602;2023-10-19T06:53:11;12.52;;;11.27;;
37937;SDS011;23763;48.130;11.602;2023-10-19T06:55:37;12.32;;;10.65;;
37937;SDS011;23763;48.130;11.602;2023-10-19T06:58:02;12.38;;;11.20;;
37937;SDS011;23763;48.130;11.602;2023-10-19T07:00:29;11.65;;;10.73;;
37937;SDS011;23763;48.130;11.602;2023-10-19T07:02:55;12.82;;;10.82;;
37937;SDS011;23763;48.130;11.602;2023-10-19T07:05:22;10.88;;;10.13;;
37937;SDS011;23763;48.130;11.602;2023-10-19T07:07:55;11.18;;;10.18;;
37937;SDS011;23763;48.130;11.602;2023-10-19T07:10:21;10.68;;;9.85;;
37937;SDS011;23763;48.130;11.602;2023-10-19T07:12:50;10.88;;;10.13;;
37937;SDS011;23763;48.130;11.602;2023-10-19T07:15:16;11.35;;;10.40;;
37937;SDS011;23763;48.130;11.602;2023-10-19T07:17:47;10.63;;;9.85;;
37937;SDS011;23763;48.130;11.602;2023-10-19T07:20:14;10.85;;;9.95;;
37937;SDS011;23763;48.130;11.602;2023-10-19T07:22:50;9.75;;;9.05;;
37937;SDS011;23763;48.130;11.602;2023-10-19T07:25:17;10.48;;;9.60;;
37937;SDS011;23763;48.130;11.602;2023-10-19T07:27:46;12.77;;;10.35;;
37937;SDS011;23763;48.130;11.602;2023-10-19T07:30:12;11.18;;;10.07;;
37937;SDS011;23763;48.130;11.602;2023-10-19T07:32:40;9.77;;;9.02;;
37937;SDS011;23763;48.130;11.602;2023-10-19T07:35:06;10.18;;;9.18;;
37937;SDS011;23763;48.130;11.602;2023-10-19T07:37:32;10.95;;;10.05;;
37937;SDS011;23763;48.130;11.602;2023-10-19T07:39:57;10.15;;;9.20;;
37937;SDS011;23763;48.130;11.602;2023-10-19T07:42:23;9.95;;;9.18;;
37937;SDS011;23763;48.130;11.602;2023-10-19T07:44:50;10.27;;;9.30;;
37937;SDS011;23763;48.130;11.602;2023-10-19T07:47:16;11.15;;;8.95;;
37937;SDS011;23763;48.130;11.602;2023-10-19T07:49:42;10.07;;;9.38;;
37937;SDS011;23763;48.130;11.602;2023-10-19T07:52:08;10.85;;;9.38;;
37937;SDS011;23763;48.130;11.602;2023-10-19T07:54:36;11.52;;;9.90;;
37937;SDS011;23763;48.130;11.602;2023-10-19T07:57:03;10.75;;;9.68;;
37937;SDS011;23763;48.130;11.602;2023-10-19T07:59:34;10.82;;;9.98;;
37937;SDS011;23763;48.130;11.602;2023-10-19T08:02:00;10.57;;;9.48;;
37937;SDS011;23763;48.130;11.602;2023-10-19T08:04:27;10.35;;;9.13;;
37937;SDS011;23763;48.130;11.602;2023-10-19T08:06:54;16.85;;;8.93;;
37937;SDS011;23763;48.130;11.602;2023-10-19T08:09:20;10.02;;;9.23;;
37937;SDS011;23763;48.130;11.602;2023-10-19T08:11:54;13.15;;;11.95;;
37937;SDS011;23763;48.130;11.602;2023-10-19T08:14:23;10.95;;;10.00;;
37937;SDS011;23763;48.130;11.602;2023-10-19T08:16:50;10.45;;;9.65;;
37937;SDS011;23763;48.130;11.602;2023-10-19T08:19:16;10.63;;;9.70;;
37937;SDS011;23763;48.130;11.602;2023-10-19T08:21:41;9.30;;;8.50;;
37937;SDS011;23763;48.130;11.602;2023-10-19T08:24:07;10.68;;;8.50;;
37937;SDS011;23763;48.130;11.602;2023-10-19T08:26:39;9.73;;;9.02;;
37937;SDS011;23763;48.130;11.602;2023-10-19T08:29:06;10.35;;;9.45;;
37937;SDS011;23763;48.130;11.602;2023-10-19T08:31:38;10.77;;;9.70;;
37937;SDS011;23763;48.130;11.602;2023-10-19T08:34:07;11.23;;;10.02;;
37937;SDS011;23763;48.130;11.602;2023-10-19T08:36:39;9.63;;;8.75;;
37937;SDS011;23763;48.130;11.602;2023-10-19T08:39:06;10.68;;;9.57;;
37937;SDS011;23763;48.130;11.602;2023-10-19T08:41:35;10.65;;;9.60;;
37937;SDS011;23763;48.130;11.602;2023-10-19T08:44:03;11.95;;;10.95;;
37937;SDS011;23763;48.130;11.602;2023-10-19T08:46:35;12.15;;;11.05;;
37937;SDS011;23763;48.130;11.602;2023-10-19T08:49:05;15.65;;;13.98;;
37937;SDS011;23763;48.130;11.602;2023-10-19T08:51:34;12.10;;;11.07;;
37937;SDS011;23763;48.130;11.602;2023-10-19T08:54:01;11.43;;;10.32;;
37937;SDS011;23763;48.130;11.602;2023-10-19T08:56:30;11.57;;;10.48;;
37937;SDS011;23763;48.130;11.602;2023-10-19T08:58:58;11.30;;;10.10;;
37937;SDS011;23763;48.130;11.602;2023-10-19T09:01:24;10.75;;;9.75;;
37937;SDS011;23763;48.130;11.602;2023-10-19T09:03:50;11.35;;;10.30;;
37937;SDS011;23763;48.130;11.602;2023-10-19T09:06:16;12.52;;;10.60;;
37937;SDS011;23763;48.130;11.602;2023-10-19T09:08:42;11.68;;;10.48;;
37937;SDS011;23763;48.130;11.602;2023-10-19T09:11:10;12.65;;;11.35;;
37937;SDS011;23763;48.130;11.602;2023-10-19T09:16:13;12.18;;;11.10;;
37937;SDS011;23763;48.130;11.602;2023-10-19T09:18:39;11.73;;;10.73;;
37937;SDS011;23763;48.130;11.602;2023-10-19T09:21:06;13.48;;;10.63;;
37937;SDS011;23763;48.130;11.602;2023-10-19T09:23:32;19.45;;;13.75;;
37937;SDS011;23763;48.130;11.602;2023-10-19T09:26:00;13.00;;;11.80;;
37937;SDS011;23763;48.130;11.602;2023-10-19T09:28:30;12.45;;;11.25;;
37937;SDS011;23763;48.130;11.602;2023-10-19T09:31:00;12.20;;;11.15;;
37937;SDS011;23763;48.130;11.602;2023-10-19T09:33:26;16.70;;;14.40;;
37937;SDS011;23763;48.130;11.602;2023-10-19T09:35:54;15.05;;;12.52;;
37937;SDS011;23763;48.130;11.602;2023-10-19T09:38:21;12.63;;;10.50;;
37937;SDS011;23763;48.130;11.602;2023-10-19T09:40:48;13.32;;;11.23;;
37937;SDS011;23763;48.130;11.602;2023-10-19T09:43:33;11.93;;;11.02;;
37937;SDS011;23763;48.130;11.602;2023-10-19T09:46:05;10.93;;;9.93;;
37937;SDS011;23763;48.130;11.602;2023-10-19T09:48:32;12.13;;;10.90;;
37937;SDS011;23763;48.130;11.602;2023-10-19T09:51:10;11.57;;;10.50;;
37937;SDS011;23763;48.130;11.602;2023-10-19T09:53:37;11.65;;;10.52;;
37937;SDS011;23763;48.130;11.602;2023-10-19T09:56:06;11.90;;;10.88;;
37937;SDS011;23763;48.130;11.602;2023-10-19T09:58:39;19.42;;;17.35;;
37937;SDS011;23763;48.130;11.602;2023-10-19T10:01:18;12.38;;;11.20;;
37937;SDS011;23763;48.130;11.602;2023-10-19T10:03:52;13.13;;;11.60;;
37937;SDS011;23763;48.130;11.602;2023-10-19T10:06:28;11.38;;;10.38;;
37937;SDS011;23763;48.130;11.602;2023-10-19T10:08:56;14.20;;;10.93;;
37937;SDS011;23763;48.130;11.602;2023-10-19T10:11:26;11.00;;;10.10;;
37937;SDS011;23763;48.130;11.602;2023-10-19T10:13:52;11.23;;;10.05;;
37937;SDS011;23763;48.130;11.602;2023-10-19T10:16:21;9.65;;;9.02;;
37937;SDS011;23763;48.130;11.602;2023-10-19T10:18:53;9.90;;;8.90;;
37937;SDS011;23763;48.130;11.602;2023-10-19T10:21:21;11.50;;;10.40;;
37937;SDS011;23763;48.130;11.602;2023-10-19T10:24:00;11.45;;;10.40;;
37937;SDS011;23763;48.130;11.602;2023-10-19T10:26:29;12.48;;;11.27;;
37937;SDS011;23763;48.130;11.602;2023-10-19T10:29:22;11.60;;;10.57;;
37937;SDS011;23763;48.130;11.602;2023-10-19T10:31:49;13.35;;;11.30;;
37937;SDS011;23763;48.130;11.602;2023-10-19T10:37:00;12.35;;;10.90;;
37937;SDS011;23763;48.130;11.602;2023-10-19T10:39:30;13.68;;;12.32;;
37937;SDS011;23763;48.130;11.602;2023-10-19T10:42:00;12.48;;;11.25;;
37937;SDS011;23763;48.130;11.602;2023-10-19T10:49:55;13.65;;;11.27;;
37937;SDS011;23763;48.130;11.602;2023-10-19T10:52:30;15.25;;;10.52;;
37937;SDS011;23763;48.130;11.602;2023-10-19T10:55:07;13.52;;;11.57;;
37937;SDS011;23763;48.130;11.602;2023-10-19T10:57:37;12.98;;;11.60;;
37937;SDS011;23763;48.130;11.602;2023-10-19T11:00:21;13.80;;;11.57;;
37937;SDS011;23763;48.130;11.602;2023-10-19T11:03:03;14.45;;;11.38;;
37937;SDS011;23763;48.130;11.602;2023-10-19T11:05:37;14.27;;;11.27;;
37937;SDS011;23763;48.130;11.602;2023-10-19T11:08:05;12.30;;;10.98;;
37937;SDS011;23763;48.130;11.602;2023-10-19T11:10:35;12.52;;;11.27;;
37937;SDS011;23763;48.130;11.602;2023-10-19T11:13:02;13.05;;;11.73;;
37937;SDS011;23763;48.130;11.602;2023-10-19T11:15:28;12.88;;;11.70;;
37937;SDS011;23763;48.130;11.602;2023-10-19T11:17:55;12.27;;;11.13;;
37937;SDS011;23763;48.130;11.602;2023-10-19T11:20:23;13.07;;;10.77;;
37937;SDS011;23763;48.130;11.602;2023-10-19T11:22:50;11.55;;;10.60;;
37937;SDS011;23763;48.130;11.602;2023-10-19T11:25:18;11.60;;;10.43;;
37937;SDS011;23763;48.130;11.602;2023-10-19T11:27:45;10.88;;;9.90;;
37937;SDS011;23763;48.130;11.602;2023-10-19T11:30:12;15.80;;;10.77;;
37937;SDS011;23763;48.130;11.602;2023-10-19T11:32:39;10.80;;;9.93;;
37937;SDS011;23763;48.130;11.602;2023-10-19T11:35:05;11.35;;;10.27;;
37937;SDS011;23763;48.130;11.602;2023-10-19T11:37:47;10.95;;;10.05;;
37937;SDS011;23763;48.130;11.602;2023-10-19T11:40:20;10.80;;;9.80;;
37937;SDS011;23763;48.130;11.602;2023-10-19T11:42:47;10.45;;;9.55;;
37937;SDS011;23763;48.130;11.602;2023-10-19T11:45:13;12.25;;;9.38;;
37937;SDS011;23763;48.130;11.602;2023-10-19T11:47:41;10.20;;;9.23;;
37937;SDS011;23763;48.130;11.602;2023-10-19T11:50:07;13.75;;;9.40;;
37937;SDS011;23763;48.130;11.602;2023-10-19T11:52:33;11.82;;;10.25;;
37937;SDS011;23763;48.130;11.602;2023-10-19T11:54:59;11.13;;;10.18;;
37937;SDS011;23763;48.130;11.602;2023-10-19T11:57:24;11.20;;;10.10;;
37937;SDS011;23763;48.130;11.602;2023-10-19T11:59:50;10.93;;;9.90;;
37937;SDS011;23763;48.130;11.602;2023-10-19T12:02:18;11.93;;;10.75;;
37937;SDS011;23763;48.130;11.602;2023-10-19T12:04:45;12.60;;;10.98;;
37937;SDS011;23763;48.130;11.602;2023-10-19T12:07:11;12.38;;;9.95;;
37937;SDS011;23763;48.130;11.602;2023-10-19T12:09:37;14.20;;;10.98;;
37937;SDS011;23763;48.130;11.602;2023-10-19T12:12:02;12.10;;;10.85;;
37937;SDS011;23763;48.130;11.602;2023-10-19T12:14:31;11.63;;;10.65;;
37937;SDS011;23763;48.130;11.602;2023-10-19T12:16:59;11.85;;;10.50;;
37937;SDS011;23763;48.130;11.602;2023-10-19T12:19:27;12.93;;;11.02;;
37937;SDS011;23763;48.130;11.602;2023-10-19T12:21:54;12.88;;;11.50;;
37937;SDS011;23763;48.130;11.602;2023-10-19T12:24:20;8.68;;;7.85;;
37937;SDS011;23763;48.130;11.602;2023-10-19T12:26:46;9.20;;;8.50;;
37937;SDS011;23763;48.130;11.602;2023-10-19T12:29:12;9.07;;;7.90;;
37937;SDS011;23763;48.130;11.602;2023-10-19T12:31:39;9.60;;;8.70;;
37937;SDS011;23763;48.130;11.602;2023-10-19T12:34:08;9.40;;;8.60;;
37937;SDS011;23763;48.130;11.602;2023-10-19T12:36:36;8.55;;;7.85;;
37937;SDS011;23763;48.130;11.602;2023-10-19T12:39:02;8.80;;;8.00;;
37937;SDS011;23763;48.130;11.602;2023-10-19T12:41:31;12.20;;;8.25;;
37937;SDS011;23763;48.130;11.602;2023-10-19T12:43:57;8.02;;;7.45;;
37937;SDS011;23763;48.130;11.602;2023-10-19T12:46:25;8.05;;;7.43;;
37937;SDS011;23763;48.130;11.602;2023-10-19T12:48:54;9.23;;;8.13;;
37937;SDS011;23763;48.130;11.602;2023-10-19T12:51:23;9.50;;;8.60;;
37937;SDS011;23763;48.130;11.602;2023-10-19T12:53:53;9.15;;;8.30;;
37937;SDS011;23763;48.130;11.602;2023-10-19T12:56:20;8.93;;;8.13;;
37937;SDS011;23763;48.130;11.602;2023-10-19T12:58:46;8.05;;;7.45;;
37937;SDS011;23763;48.130;11.602;2023-10-19T13:01:13;7.60;;;6.90;;
37937;SDS011;23763;48.130;11.602;2023-10-19T13:03:44;8.20;;;7.60;;
37937;SDS011;23763;48.130;11.602;2023-10-19T13:06:11;8.68;;;7.10;;
37937;SDS011;23763;48.130;11.602;2023-10-19T13:08:38;8.77;;;8.05;;
37937;SDS011;23763;48.130;11.602;2023-10-19T13:11:05;9.88;;;8.90;;
37937;SDS011;23763;48.130;11.602;2023-10-19T13:13:40;8.43;;;7.68;;
37937;SDS011;23763;48.130;11.602;2023-10-19T13:16:06;8.70;;;8.00;;
37937;SDS011;23763;48.130;11.602;2023-10-19T13:18:34;7.70;;;7.00;;
37937;SDS011;23763;48.130;11.602;2023-10-19T13:21:00;6.90;;;6.40;;
37937;SDS011;23763;48.130;11.602;2023-10-19T13:23:36;7.38;;;6.78;;
37937;SDS011;23763;48.130;11.602;2023-10-19T13:26:02;8.02;;;7.28;;
37937;SDS011;23763;48.130;11.602;2023-10-19T13:28:42;9.60;;;7.20;;
37937;SDS011;23763;48.130;11.602;2023-10-19T13:31:11;11.60;;;10.05;;
37937;SDS011;23763;48.130;11.602;2023-10-19T13:33:40;8.60;;;7.80;;
37937;SDS011;23763;48.130;11.602;2023-10-19T13:36:07;7.80;;;7.20;;
37937;SDS011;23763;48.130;11.602;2023-10-19T13:38:32;7.00;;;6.50;;
37937;SDS011;23763;48.130;11.602;2023-10-19T13:40:58;7.03;;;6.53;;
37937;SDS011;23763;48.130;11.602;2023-10-19T13:43:24;7.72;;;7.03;;
37937;SDS011;23763;48.130;11.602;2023-10-19T13:45:50;7.93;;;7.18;;
37937;SDS011;23763;48.130;11.602;2023-10-19T13:48:18;9.65;;;7.80;;
37937;SDS011;23763;48.130;11.602;2023-10-19T13:50:47;8.10;;;7.50;;
37937;SDS011;23763;48.130;11.602;2023-10-19T13:53:14;8.48;;;7.43;;
37937;SDS011;23763;48.130;11.602;2023-10-19T13:55:40;10.05;;;7.20;;
37937;SDS011;23763;48.130;11.602;2023-10-19T13:58:07;7.88;;;7.15;;
37937;SDS011;23763;48.130;11.602;2023-10-19T14:00:32;8.07;;;7.47;;
37937;SDS011;23763;48.130;11.602;2023-10-19T14:02:58;7.72;;;7.00;;
37937;SDS011;23763;48.130;11.602;2023-10-19T14:05:25;7.05;;;6.53;;
37937;SDS011;23763;48.130;11.602;2023-10-19T14:07:52;8.18;;;7.57;;
37937;SDS011;23763;48.130;11.602;2023-10-19T14:10:17;7.75;;;7.25;;
37937;SDS011;23763;48.130;11.602;2023-10-19T14:12:45;8.80;;;7.90;;
37937;SDS011;23763;48.130;11.602;2023-10-19T14:17:38;7.65;;;7.07;;
37937;SDS011;23763;48.130;11.602;2023-10-19T14:20:04;8.73;;;7.82;;
37937;SDS011;23763;48.130;11.602;2023-10-19T14:22:30;8.95;;;8.23;;
37937;SDS011;23763;48.130;11.602;2023-10-19T14:24:59;9.25;;;8.02;;
37937;SDS011;23763;48.130;11.602;2023-10-19T14:27:25;8.90;;;8.05;;
37937;SDS011;23763;48.130;11.602;2023-10-19T14:29:51;9.30;;;8.70;;
37937;SDS011;23763;48.130;11.602;2023-10-19T14:32:17;10.10;;;9.15;;
37937;SDS011;23763;48.130;11.602;2023-10-19T14:34:42;11.57;;;10.63;;